sensor_id;sensor_type;location;lat;lon;timestamp;P1;durP1;ratioP1;P2;durP2;ratioP2
8895;SDS011;4484;48.928;10.066;2023-07-16T00:02:02;2.73;;;2.20;;
8895;SDS011;4484;48.928;10.066;2023-07-16T00:04:29;5.23;;;2.63;;
8895;SDS011;4484;48.928;10.066;2023-07-16T00:06:57;2.37;;;2.17;;
8895;SDS011;4484;48.928;10.066;2023-07-16T00:09:25;3.23;;;2.30;;
8895;SDS011;4484;48.928;10.066;2023-07-16T00:11:52;3.10;;;2.20;;
8895;SDS011;4484;48.928;10.066;2023-07-16T00:14:19;3.30;;;2.50;;
8895;SDS011;4484;48.928;10.066;2023-07-16T00:16:46;3.03;;;2.27;;
8895;SDS011;4484;48.928;10.066;2023-07-16T00:19:14;5.00;;;2.20;;
8895;SDS011;4484;48.928;10.066;2023-07-16T00:21:41;3.73;;;2.17;;
8895;SDS011;4484;48.928;10.066;2023-07-16T00:24:08;3.63;;;2.37;;
8895;SDS011;4484;48.928;10.066;2023-07-16T00:26:35;3.00;;;2.30;;
8895;SDS011;4484;48.928;10.066;2023-07-16T00:29:02;2.87;;;2.00;;
8895;SDS011;4484;48.928;10.066;2023-07-16T00:31:28;3.00;;;1.57;;
8895;SDS011;4484;48.928;10.066;2023-07-16T00:33:55;2.17;;;1.40;;
8895;SDS011;4484;48.928;10.066;2023-07-16T00:36:22;2.03;;;1.40;;
8895;SDS011;4484;48.928;10.066;2023-07-16T00:38:49;2.43;;;1.50;;
8895;SDS011;4484;48.928;10.066;2023-07-16T00:41:16;2.27;;;1.53;;
8895;SDS011;4484;48.928;10.066;2023-07-16T00:43:43;6.73;;;1.80;;
8895;SDS011;4484;48.928;10.066;2023-07-16T00:46:10;1.33;;;1.23;;
8895;SDS011;4484;48.928;10.066;2023-07-16T00:48:40;4.23;;;1.67;;
8895;SDS011;4484;48.928;10.066;2023-07-16T00:51:08;3.00;;;1.87;;
8895;SDS011;4484;48.928;10.066;2023-07-16T00:53:35;3.40;;;1.90;;
8895;SDS011;4484;48.928;10.066;2023-07-16T00:56:02;3.10;;;1.40;;
8895;SDS011;4484;48.928;10.066;2023-07-16T00:58:29;2.33;;;1.40;;
8895;SDS011;4484;48.928;10.066;2023-07-16T01:00:56;3.13;;;1.37;;
8895;SDS011;4484;48.928;10.066;2023-07-16T01:03:23;0.87;;;0.80;;
8895;SDS011;4484;48.928;10.066;2023-07-16T01:11:20;1.53;;;0.90;;
8895;SDS011;4484;48.928;10.066;2023-07-16T01:13:48;2.10;;;1.00;;
8895;SDS011;4484;48.928;10.066;2023-07-16T01:16:19;2.13;;;0.90;;
8895;SDS011;4484;48.928;10.066;2023-07-16T01:19:00;1.67;;;1.00;;
8895;SDS011;4484;48.928;10.066;2023-07-16T01:29:44;1.20;;;1.07;;
8895;SDS011;4484;48.928;10.066;2023-07-16T01:32:23;1.43;;;1.20;;
8895;SDS011;4484;48.928;10.066;2023-07-16T01:34:51;1.47;;;1.10;;
8895;SDS011;4484;48.928;10.066;2023-07-16T01:37:19;3.23;;;1.53;;
8895;SDS011;4484;48.928;10.066;2023-07-16T01:39:46;1.83;;;1.07;;
8895;SDS011;4484;48.928;10.066;2023-07-16T01:42:13;1.97;;;1.30;;
8895;SDS011;4484;48.928;10.066;2023-07-16T01:44:41;4.43;;;1.53;;
8895;SDS011;4484;48.928;10.066;2023-07-16T01:47:13;3.00;;;1.40;;
8895;SDS011;4484;48.928;10.066;2023-07-16T01:49:55;2.67;;;1.63;;
8895;SDS011;4484;48.928;10.066;2023-07-16T01:52:22;3.47;;;1.60;;
8895;SDS011;4484;48.928;10.066;2023-07-16T01:54:49;4.13;;;1.20;;
8895;SDS011;4484;48.928;10.066;2023-07-16T01:57:20;1.90;;;1.40;;
8895;SDS011;4484;48.928;10.066;2023-07-16T01:59:47;2.13;;;1.37;;
8895;SDS011;4484;48.928;10.066;2023-07-16T02:02:13;2.73;;;1.40;;
8895;SDS011;4484;48.928;10.066;2023-07-16T02:04:40;1.70;;;1.60;;
8895;SDS011;4484;48.928;10.066;2023-07-16T02:07:07;1.03;;;0.93;;
8895;SDS011;4484;48.928;10.066;2023-07-16T02:09:34;2.70;;;1.40;;
8895;SDS011;4484;48.928;10.066;2023-07-16T02:12:04;4.30;;;1.10;;
8895;SDS011;4484;48.928;10.066;2023-07-16T02:14:31;1.23;;;1.00;;
8895;SDS011;4484;48.928;10.066;2023-07-16T02:16:58;1.10;;;1.00;;
8895;SDS011;4484;48.928;10.066;2023-07-16T02:19:24;1.20;;;1.10;;
8895;SDS011;4484;48.928;10.066;2023-07-16T02:21:54;1.53;;;1.10;;
8895;SDS011;4484;48.928;10.066;2023-07-16T02:24:21;1.93;;;1.17;;
8895;SDS011;4484;48.928;10.066;2023-07-16T02:26:50;1.40;;;1.07;;
8895;SDS011;4484;48.928;10.066;2023-07-16T02:29:17;1.00;;;0.90;;
8895;SDS011;4484;48.928;10.066;2023-07-16T02:31:44;0.80;;;0.80;;
8895;SDS011;4484;48.928;10.066;2023-07-16T02:34:12;0.93;;;0.80;;
8895;SDS011;4484;48.928;10.066;2023-07-16T02:36:39;1.03;;;0.90;;
8895;SDS011;4484;48.928;10.066;2023-07-16T02:39:06;1.10;;;1.00;;
8895;SDS011;4484;48.928;10.066;2023-07-16T02:41:33;1.00;;;0.90;;
8895;SDS011;4484;48.928;10.066;2023-07-16T02:44:01;2.00;;;0.83;;
8895;SDS011;4484;48.928;10.066;2023-07-16T02:46:30;1.10;;;0.90;;
8895;SDS011;4484;48.928;10.066;2023-07-16T02:48:58;1.63;;;1.00;;
8895;SDS011;4484;48.928;10.066;2023-07-16T02:51:24;0.93;;;0.90;;
8895;SDS011;4484;48.928;10.066;2023-07-16T02:53:51;5.37;;;1.00;;
8895;SDS011;4484;48.928;10.066;2023-07-16T02:56:18;1.43;;;1.03;;
8895;SDS011;4484;48.928;10.066;2023-07-16T02:58:45;1.53;;;1.03;;
8895;SDS011;4484;48.928;10.066;2023-07-16T03:01:14;1.17;;;0.90;;
8895;SDS011;4484;48.928;10.066;2023-07-16T03:03:41;1.10;;;0.90;;
8895;SDS011;4484;48.928;10.066;2023-07-16T03:06:08;0.93;;;0.83;;
8895;SDS011;4484;48.928;10.066;2023-07-16T03:08:35;0.80;;;0.80;;
8895;SDS011;4484;48.928;10.066;2023-07-16T03:11:01;2.30;;;1.13;;
8895;SDS011;4484;48.928;10.066;2023-07-16T03:13:28;2.50;;;1.10;;
8895;SDS011;4484;48.928;10.066;2023-07-16T03:15:55;1.13;;;1.00;;
8895;SDS011;4484;48.928;10.066;2023-07-16T03:18:22;1.53;;;0.90;;
8895;SDS011;4484;48.928;10.066;2023-07-16T03:20:55;0.80;;;0.80;;
8895;SDS011;4484;48.928;10.066;2023-07-16T03:23:23;2.70;;;0.87;;
8895;SDS011;4484;48.928;10.066;2023-07-16T03:25:53;0.80;;;0.80;;
8895;SDS011;4484;48.928;10.066;2023-07-16T03:28:20;2.00;;;0.93;;
8895;SDS011;4484;48.928;10.066;2023-07-16T03:30:48;2.83;;;0.77;;
8895;SDS011;4484;48.928;10.066;2023-07-16T03:33:16;1.17;;;0.80;;
8895;SDS011;4484;48.928;10.066;2023-07-16T03:35:44;3.17;;;1.00;;
8895;SDS011;4484;48.928;10.066;2023-07-16T03:38:12;1.97;;;1.00;;
8895;SDS011;4484;48.928;10.066;2023-07-16T03:40:41;1.00;;;0.80;;
8895;SDS011;4484;48.928;10.066;2023-07-16T03:43:12;1.57;;;0.90;;
8895;SDS011;4484;48.928;10.066;2023-07-16T03:45:39;1.00;;;0.90;;
8895;SDS011;4484;48.928;10.066;2023-07-16T03:48:06;1.53;;;0.70;;
8895;SDS011;4484;48.928;10.066;2023-07-16T03:50:33;1.87;;;1.03;;
8895;SDS011;4484;48.928;10.066;2023-07-16T03:53:00;3.90;;;0.80;;
8895;SDS011;4484;48.928;10.066;2023-07-16T03:55:29;2.03;;;1.00;;
8895;SDS011;4484;48.928;10.066;2023-07-16T03:57:56;3.27;;;1.20;;
8895;SDS011;4484;48.928;10.066;2023-07-16T04:00:23;1.20;;;1.10;;
8895;SDS011;4484;48.928;10.066;2023-07-16T04:02:51;2.23;;;1.37;;
8895;SDS011;4484;48.928;10.066;2023-07-16T04:05:18;2.70;;;1.00;;
8895;SDS011;4484;48.928;10.066;2023-07-16T04:07:49;3.37;;;1.20;;
8895;SDS011;4484;48.928;10.066;2023-07-16T04:10:16;2.57;;;0.80;;
8895;SDS011;4484;48.928;10.066;2023-07-16T04:12:43;1.77;;;1.07;;
8895;SDS011;4484;48.928;10.066;2023-07-16T04:15:11;2.20;;;1.00;;
8895;SDS011;4484;48.928;10.066;2023-07-16T04:17:37;2.00;;;1.13;;
8895;SDS011;4484;48.928;10.066;2023-07-16T04:20:05;2.40;;;1.20;;
8895;SDS011;4484;48.928;10.066;2023-07-16T04:22:33;1.07;;;0.90;;
8895;SDS011;4484;48.928;10.066;2023-07-16T04:25:01;2.00;;;1.10;;
8895;SDS011;4484;48.928;10.066;2023-07-16T04:27:30;1.30;;;0.93;;
8895;SDS011;4484;48.928;10.066;2023-07-16T04:29:57;3.70;;;1.10;;
8895;SDS011;4484;48.928;10.066;2023-07-16T04:32:24;1.20;;;0.90;;
8895;SDS011;4484;48.928;10.066;2023-07-16T04:34:51;1.23;;;1.00;;
8895;SDS011;4484;48.928;10.066;2023-07-16T04:37:17;1.70;;;0.80;;
8895;SDS011;4484;48.928;10.066;2023-07-16T04:39:44;0.97;;;0.80;;
8895;SDS011;4484;48.928;10.066;2023-07-16T04:42:11;3.97;;;1.17;;
8895;SDS011;4484;48.928;10.066;2023-07-16T04:44:38;2.90;;;1.30;;
8895;SDS011;4484;48.928;10.066;2023-07-16T04:47:05;1.70;;;1.00;;
8895;SDS011;4484;48.928;10.066;2023-07-16T04:49:34;2.13;;;0.97;;
8895;SDS011;4484;48.928;10.066;2023-07-16T04:52:01;1.63;;;1.00;;
8895;SDS011;4484;48.928;10.066;2023-07-16T04:54:28;1.37;;;0.90;;
8895;SDS011;4484;48.928;10.066;2023-07-16T04:56:55;3.30;;;0.80;;
8895;SDS011;4484;48.928;10.066;2023-07-16T04:59:22;1.67;;;0.93;;
8895;SDS011;4484;48.928;10.066;2023-07-16T05:01:49;3.63;;;1.00;;
8895;SDS011;4484;48.928;10.066;2023-07-16T05:04:16;2.00;;;1.30;;
8895;SDS011;4484;48.928;10.066;2023-07-16T05:06:43;1.63;;;1.17;;
8895;SDS011;4484;48.928;10.066;2023-07-16T05:09:10;1.67;;;0.90;;
8895;SDS011;4484;48.928;10.066;2023-07-16T05:11:36;1.97;;;1.07;;
8895;SDS011;4484;48.928;10.066;2023-07-16T05:14:04;1.67;;;1.03;;
8895;SDS011;4484;48.928;10.066;2023-07-16T05:16:31;1.27;;;1.10;;
8895;SDS011;4484;48.928;10.066;2023-07-16T05:18:58;1.93;;;1.07;;
8895;SDS011;4484;48.928;10.066;2023-07-16T05:21:25;3.43;;;1.37;;
8895;SDS011;4484;48.928;10.066;2023-07-16T05:23:52;2.20;;;1.13;;
8895;SDS011;4484;48.928;10.066;2023-07-16T05:26:18;1.70;;;1.20;;
8895;SDS011;4484;48.928;10.066;2023-07-16T05:28:45;2.20;;;1.00;;
8895;SDS011;4484;48.928;10.066;2023-07-16T05:31:12;1.00;;;0.90;;
8895;SDS011;4484;48.928;10.066;2023-07-16T05:33:39;2.33;;;1.07;;
8895;SDS011;4484;48.928;10.066;2023-07-16T05:36:06;3.00;;;1.23;;
8895;SDS011;4484;48.928;10.066;2023-07-16T05:38:33;3.13;;;1.00;;
8895;SDS011;4484;48.928;10.066;2023-07-16T05:41:01;4.50;;;1.33;;
8895;SDS011;4484;48.928;10.066;2023-07-16T05:43:31;5.40;;;1.57;;
8895;SDS011;4484;48.928;10.066;2023-07-16T05:45:59;3.43;;;1.30;;
8895;SDS011;4484;48.928;10.066;2023-07-16T05:48:26;3.50;;;1.00;;
8895;SDS011;4484;48.928;10.066;2023-07-16T05:50:53;4.20;;;1.20;;
8895;SDS011;4484;48.928;10.066;2023-07-16T05:53:20;1.83;;;1.00;;
8895;SDS011;4484;48.928;10.066;2023-07-16T05:55:46;3.03;;;1.30;;
8895;SDS011;4484;48.928;10.066;2023-07-16T05:58:15;2.63;;;1.20;;
8895;SDS011;4484;48.928;10.066;2023-07-16T06:00:42;3.20;;;1.27;;
8895;SDS011;4484;48.928;10.066;2023-07-16T06:03:09;3.63;;;1.30;;
8895;SDS011;4484;48.928;10.066;2023-07-16T06:05:36;7.27;;;1.50;;
8895;SDS011;4484;48.928;10.066;2023-07-16T06:08:03;5.03;;;1.27;;
8895;SDS011;4484;48.928;10.066;2023-07-16T06:10:30;5.97;;;1.50;;
8895;SDS011;4484;48.928;10.066;2023-07-16T06:13:00;2.67;;;1.23;;
8895;SDS011;4484;48.928;10.066;2023-07-16T06:15:27;3.63;;;1.37;;
8895;SDS011;4484;48.928;10.066;2023-07-16T06:17:54;4.50;;;1.37;;
8895;SDS011;4484;48.928;10.066;2023-07-16T06:20:21;5.50;;;1.60;;
8895;SDS011;4484;48.928;10.066;2023-07-16T06:22:48;4.07;;;1.23;;
8895;SDS011;4484;48.928;10.066;2023-07-16T06:25:15;3.13;;;1.20;;
8895;SDS011;4484;48.928;10.066;2023-07-16T06:27:42;4.40;;;1.50;;
8895;SDS011;4484;48.928;10.066;2023-07-16T06:30:09;5.50;;;1.50;;
8895;SDS011;4484;48.928;10.066;2023-07-16T06:32:36;4.53;;;1.33;;
8895;SDS011;4484;48.928;10.066;2023-07-16T06:35:03;5.23;;;1.30;;
8895;SDS011;4484;48.928;10.066;2023-07-16T06:37:30;3.70;;;1.60;;
8895;SDS011;4484;48.928;10.066;2023-07-16T06:39:57;5.47;;;1.10;;
8895;SDS011;4484;48.928;10.066;2023-07-16T06:42:24;6.83;;;1.50;;
8895;SDS011;4484;48.928;10.066;2023-07-16T06:44:51;2.90;;;1.30;;
8895;SDS011;4484;48.928;10.066;2023-07-16T06:47:18;4.13;;;1.30;;
8895;SDS011;4484;48.928;10.066;2023-07-16T06:49:45;3.00;;;1.10;;
8895;SDS011;4484;48.928;10.066;2023-07-16T06:52:22;4.43;;;1.43;;
8895;SDS011;4484;48.928;10.066;2023-07-16T06:54:53;3.00;;;1.33;;
8895;SDS011;4484;48.928;10.066;2023-07-16T06:57:24;3.30;;;1.63;;
8895;SDS011;4484;48.928;10.066;2023-07-16T06:59:52;3.40;;;1.33;;
8895;SDS011;4484;48.928;10.066;2023-07-16T07:02:19;3.57;;;1.13;;
8895;SDS011;4484;48.928;10.066;2023-07-16T07:04:46;3.33;;;1.20;;
8895;SDS011;4484;48.928;10.066;2023-07-16T07:07:13;9.60;;;1.63;;
8895;SDS011;4484;48.928;10.066;2023-07-16T07:09:40;3.23;;;1.33;;
8895;SDS011;4484;48.928;10.066;2023-07-16T07:12:07;3.40;;;1.40;;
8895;SDS011;4484;48.928;10.066;2023-07-16T07:14:34;6.93;;;1.70;;
8895;SDS011;4484;48.928;10.066;2023-07-16T07:17:01;4.13;;;1.50;;
8895;SDS011;4484;48.928;10.066;2023-07-16T07:19:28;4.50;;;1.30;;
8895;SDS011;4484;48.928;10.066;2023-07-16T07:21:55;6.33;;;1.30;;
8895;SDS011;4484;48.928;10.066;2023-07-16T07:24:22;3.77;;;1.10;;
8895;SDS011;4484;48.928;10.066;2023-07-16T07:26:49;3.17;;;1.30;;
8895;SDS011;4484;48.928;10.066;2023-07-16T07:29:15;4.87;;;1.60;;
8895;SDS011;4484;48.928;10.066;2023-07-16T07:31:42;3.50;;;1.50;;
8895;SDS011;4484;48.928;10.066;2023-07-16T07:34:09;4.27;;;1.50;;
8895;SDS011;4484;48.928;10.066;2023-07-16T07:36:36;3.27;;;1.10;;
8895;SDS011;4484;48.928;10.066;2023-07-16T07:39:03;3.37;;;1.23;;
8895;SDS011;4484;48.928;10.066;2023-07-16T07:41:30;6.53;;;1.70;;
8895;SDS011;4484;48.928;10.066;2023-07-16T07:43:56;3.70;;;1.20;;
8895;SDS011;4484;48.928;10.066;2023-07-16T07:46:23;4.10;;;1.70;;
8895;SDS011;4484;48.928;10.066;2023-07-16T07:48:50;3.70;;;1.50;;
8895;SDS011;4484;48.928;10.066;2023-07-16T07:51:17;4.87;;;1.33;;
8895;SDS011;4484;48.928;10.066;2023-07-16T07:53:44;5.77;;;1.73;;
8895;SDS011;4484;48.928;10.066;2023-07-16T07:56:11;2.40;;;1.30;;
8895;SDS011;4484;48.928;10.066;2023-07-16T07:58:38;1.60;;;1.20;;
8895;SDS011;4484;48.928;10.066;2023-07-16T08:01:07;5.80;;;1.60;;
8895;SDS011;4484;48.928;10.066;2023-07-16T08:03:34;3.53;;;1.20;;
8895;SDS011;4484;48.928;10.066;2023-07-16T08:06:02;3.43;;;1.30;;
8895;SDS011;4484;48.928;10.066;2023-07-16T08:08:29;7.27;;;1.17;;
8895;SDS011;4484;48.928;10.066;2023-07-16T08:10:55;2.77;;;1.30;;
8895;SDS011;4484;48.928;10.066;2023-07-16T08:13:22;4.40;;;1.60;;
8895;SDS011;4484;48.928;10.066;2023-07-16T08:15:49;3.63;;;1.10;;
8895;SDS011;4484;48.928;10.066;2023-07-16T08:18:16;3.50;;;1.23;;
8895;SDS011;4484;48.928;10.066;2023-07-16T08:20:43;3.53;;;1.43;;
8895;SDS011;4484;48.928;10.066;2023-07-16T08:23:10;2.63;;;1.70;;
8895;SDS011;4484;48.928;10.066;2023-07-16T08:25:37;3.73;;;1.53;;
8895;SDS011;4484;48.928;10.066;2023-07-16T08:28:04;6.63;;;1.50;;
8895;SDS011;4484;48.928;10.066;2023-07-16T08:30:32;1.97;;;1.10;;
8895;SDS011;4484;48.928;10.066;2023-07-16T08:32:59;3.20;;;1.20;;
8895;SDS011;4484;48.928;10.066;2023-07-16T08:35:26;4.87;;;1.70;;
8895;SDS011;4484;48.928;10.066;2023-07-16T08:37:53;3.63;;;1.60;;
8895;SDS011;4484;48.928;10.066;2023-07-16T08:40:20;5.20;;;1.50;;
8895;SDS011;4484;48.928;10.066;2023-07-16T08:42:47;4.57;;;1.30;;
8895;SDS011;4484;48.928;10.066;2023-07-16T08:45:15;6.80;;;1.58;;
8895;SDS011;4484;48.928;10.066;2023-07-16T08:47:44;6.30;;;1.50;;
8895;SDS011;4484;48.928;10.066;2023-07-16T08:50:11;7.60;;;1.33;;
8895;SDS011;4484;48.928;10.066;2023-07-16T08:52:39;6.10;;;1.67;;
8895;SDS011;4484;48.928;10.066;2023-07-16T08:55:06;2.73;;;1.40;;
8895;SDS011;4484;48.928;10.066;2023-07-16T08:57:33;4.27;;;1.33;;
8895;SDS011;4484;48.928;10.066;2023-07-16T09:00:01;3.65;;;1.60;;
8895;SDS011;4484;48.928;10.066;2023-07-16T09:02:28;4.17;;;1.30;;
8895;SDS011;4484;48.928;10.066;2023-07-16T09:04:55;3.20;;;1.37;;
8895;SDS011;4484;48.928;10.066;2023-07-16T09:07:23;2.85;;;1.17;;
8895;SDS011;4484;48.928;10.066;2023-07-16T09:09:59;2.70;;;1.30;;
8895;SDS011;4484;48.928;10.066;2023-07-16T09:12:26;5.18;;;1.70;;
8895;SDS011;4484;48.928;10.066;2023-07-16T09:14:54;1.80;;;1.10;;
8895;SDS011;4484;48.928;10.066;2023-07-16T09:17:24;2.88;;;1.27;;
8895;SDS011;4484;48.928;10.066;2023-07-16T09:19:52;3.58;;;1.30;;
8895;SDS011;4484;48.928;10.066;2023-07-16T09:22:19;5.45;;;1.52;;
8895;SDS011;4484;48.928;10.066;2023-07-16T09:24:47;3.53;;;1.27;;
8895;SDS011;4484;48.928;10.066;2023-07-16T09:27:14;2.72;;;1.60;;
8895;SDS011;4484;48.928;10.066;2023-07-16T09:29:41;6.63;;;1.15;;
8895;SDS011;4484;48.928;10.066;2023-07-16T09:32:08;5.13;;;1.58;;
8895;SDS011;4484;48.928;10.066;2023-07-16T09:34:35;4.90;;;1.83;;
8895;SDS011;4484;48.928;10.066;2023-07-16T09:37:04;2.58;;;1.48;;
8895;SDS011;4484;48.928;10.066;2023-07-16T09:39:32;2.25;;;1.30;;
8895;SDS011;4484;48.928;10.066;2023-07-16T09:41:59;2.97;;;1.30;;
8895;SDS011;4484;48.928;10.066;2023-07-16T09:44:28;2.35;;;1.17;;
8895;SDS011;4484;48.928;10.066;2023-07-16T09:46:56;2.90;;;1.13;;
8895;SDS011;4484;48.928;10.066;2023-07-16T09:49:23;2.25;;;1.35;;
8895;SDS011;4484;48.928;10.066;2023-07-16T09:51:50;4.57;;;1.40;;
8895;SDS011;4484;48.928;10.066;2023-07-16T09:54:20;2.38;;;1.30;;
8895;SDS011;4484;48.928;10.066;2023-07-16T09:56:48;2.22;;;1.10;;
8895;SDS011;4484;48.928;10.066;2023-07-16T09:59:19;1.63;;;1.20;;
8895;SDS011;4484;48.928;10.066;2023-07-16T10:01:49;4.45;;;1.60;;
8895;SDS011;4484;48.928;10.066;2023-07-16T10:04:18;3.33;;;1.45;;
8895;SDS011;4484;48.928;10.066;2023-07-16T10:06:54;5.63;;;1.33;;
8895;SDS011;4484;48.928;10.066;2023-07-16T10:12:21;2.17;;;1.30;;
8895;SDS011;4484;48.928;10.066;2023-07-16T10:14:51;2.80;;;1.40;;
8895;SDS011;4484;48.928;10.066;2023-07-16T10:17:20;3.03;;;1.40;;
8895;SDS011;4484;48.928;10.066;2023-07-16T10:19:49;2.83;;;1.42;;
8895;SDS011;4484;48.928;10.066;2023-07-16T10:22:17;1.85;;;1.40;;
8895;SDS011;4484;48.928;10.066;2023-07-16T10:24:50;2.83;;;1.20;;
8895;SDS011;4484;48.928;10.066;2023-07-16T10:27:29;3.15;;;1.20;;
8895;SDS011;4484;48.928;10.066;2023-07-16T10:29:57;2.35;;;1.50;;
8895;SDS011;4484;48.928;10.066;2023-07-16T10:32:28;3.35;;;1.42;;
8895;SDS011;4484;48.928;10.066;2023-07-16T10:34:56;3.83;;;1.60;;
8895;SDS011;4484;48.928;10.066;2023-07-16T10:37:24;2.08;;;1.40;;
8895;SDS011;4484;48.928;10.066;2023-07-16T10:39:52;3.40;;;1.50;;
8895;SDS011;4484;48.928;10.066;2023-07-16T10:42:26;3.05;;;1.70;;
8895;SDS011;4484;48.928;10.066;2023-07-16T10:44:54;3.42;;;1.30;;
8895;SDS011;4484;48.928;10.066;2023-07-16T10:47:29;2.72;;;1.50;;
8895;SDS011;4484;48.928;10.066;2023-07-16T10:50:02;2.17;;;1.23;;
8895;SDS011;4484;48.928;10.066;2023-07-16T10:52:30;1.77;;;1.33;;
8895;SDS011;4484;48.928;10.066;2023-07-16T10:54:57;3.33;;;1.33;;
8895;SDS011;4484;48.928;10.066;2023-07-16T10:57:25;2.35;;;1.40;;
8895;SDS011;4484;48.928;10.066;2023-07-16T10:59:52;1.90;;;1.15;;
8895;SDS011;4484;48.928;10.066;2023-07-16T11:02:21;2.55;;;1.38;;
8895;SDS011;4484;48.928;10.066;2023-07-16T11:04:49;2.28;;;1.30;;
8895;SDS011;4484;48.928;10.066;2023-07-16T11:07:19;1.98;;;1.30;;
8895;SDS011;4484;48.928;10.066;2023-07-16T11:09:50;1.83;;;1.38;;
8895;SDS011;4484;48.928;10.066;2023-07-16T11:12:22;4.38;;;1.52;;
8895;SDS011;4484;48.928;10.066;2023-07-16T11:14:50;3.10;;;1.40;;
8895;SDS011;4484;48.928;10.066;2023-07-16T11:17:22;1.95;;;1.30;;
8895;SDS011;4484;48.928;10.066;2023-07-16T11:19:51;1.42;;;1.17;;
8895;SDS011;4484;48.928;10.066;2023-07-16T11:22:19;3.50;;;1.23;;
8895;SDS011;4484;48.928;10.066;2023-07-16T11:24:50;2.47;;;1.20;;
8895;SDS011;4484;48.928;10.066;2023-07-16T11:27:27;3.47;;;1.75;;
8895;SDS011;4484;48.928;10.066;2023-07-16T11:29:58;2.58;;;1.55;;
8895;SDS011;4484;48.928;10.066;2023-07-16T11:32:29;1.98;;;1.05;;
8895;SDS011;4484;48.928;10.066;2023-07-16T11:34:58;2.22;;;1.25;;
8895;SDS011;4484;48.928;10.066;2023-07-16T11:37:26;3.40;;;1.40;;
8895;SDS011;4484;48.928;10.066;2023-07-16T11:39:55;3.38;;;1.52;;
8895;SDS011;4484;48.928;10.066;2023-07-16T11:42:23;3.20;;;1.40;;
8895;SDS011;4484;48.928;10.066;2023-07-16T11:44:57;3.17;;;1.50;;
8895;SDS011;4484;48.928;10.066;2023-07-16T11:47:24;3.33;;;1.63;;
8895;SDS011;4484;48.928;10.066;2023-07-16T11:49:52;2.85;;;1.38;;
8895;SDS011;4484;48.928;10.066;2023-07-16T11:52:23;4.07;;;1.70;;
8895;SDS011;4484;48.928;10.066;2023-07-16T11:54:52;3.60;;;1.10;;
8895;SDS011;4484;48.928;10.066;2023-07-16T11:57:19;4.18;;;1.33;;
8895;SDS011;4484;48.928;10.066;2023-07-16T11:59:46;2.53;;;1.35;;
8895;SDS011;4484;48.928;10.066;2023-07-16T12:02:14;2.35;;;1.25;;
8895;SDS011;4484;48.928;10.066;2023-07-16T12:04:41;2.95;;;1.63;;
8895;SDS011;4484;48.928;10.066;2023-07-16T12:07:08;1.10;;;0.98;;
8895;SDS011;4484;48.928;10.066;2023-07-16T12:09:35;2.60;;;1.40;;
8895;SDS011;4484;48.928;10.066;2023-07-16T12:12:02;2.78;;;1.40;;
8895;SDS011;4484;48.928;10.066;2023-07-16T12:14:29;1.80;;;1.25;;
8895;SDS011;4484;48.928;10.066;2023-07-16T12:16:57;1.50;;;1.10;;
8895;SDS011;4484;48.928;10.066;2023-07-16T12:19:24;1.30;;;1.20;;
8895;SDS011;4484;48.928;10.066;2023-07-16T12:21:51;4.28;;;1.30;;
8895;SDS011;4484;48.928;10.066;2023-07-16T12:24:20;3.20;;;1.60;;
8895;SDS011;4484;48.928;10.066;2023-07-16T12:26:46;1.70;;;1.20;;
8895;SDS011;4484;48.928;10.066;2023-07-16T12:29:13;2.47;;;1.35;;
8895;SDS011;4484;48.928;10.066;2023-07-16T12:31:40;3.80;;;1.38;;
8895;SDS011;4484;48.928;10.066;2023-07-16T12:34:07;1.63;;;1.20;;
8895;SDS011;4484;48.928;10.066;2023-07-16T12:36:34;5.32;;;1.63;;
8895;SDS011;4484;48.928;10.066;2023-07-16T12:39:00;2.60;;;1.42;;
8895;SDS011;4484;48.928;10.066;2023-07-16T12:41:27;4.68;;;1.60;;
8895;SDS011;4484;48.928;10.066;2023-07-16T12:43:54;2.00;;;1.30;;
8895;SDS011;4484;48.928;10.066;2023-07-16T12:46:21;2.17;;;1.52;;
8895;SDS011;4484;48.928;10.066;2023-07-16T12:48:48;2.42;;;1.50;;
8895;SDS011;4484;48.928;10.066;2023-07-16T12:51:15;3.38;;;1.40;;
8895;SDS011;4484;48.928;10.066;2023-07-16T12:53:41;2.33;;;1.05;;
8895;SDS011;4484;48.928;10.066;2023-07-16T12:56:10;2.35;;;1.67;;
8895;SDS011;4484;48.928;10.066;2023-07-16T12:58:37;5.80;;;1.65;;
8895;SDS011;4484;48.928;10.066;2023-07-16T13:01:03;1.52;;;1.20;;
8895;SDS011;4484;48.928;10.066;2023-07-16T13:03:30;1.55;;;1.30;;
8895;SDS011;4484;48.928;10.066;2023-07-16T13:05:57;1.73;;;1.38;;
8895;SDS011;4484;48.928;10.066;2023-07-16T13:08:24;3.13;;;1.48;;
8895;SDS011;4484;48.928;10.066;2023-07-16T13:10:51;2.60;;;1.60;;
8895;SDS011;4484;48.928;10.066;2023-07-16T13:13:18;1.38;;;1.20;;
8895;SDS011;4484;48.928;10.066;2023-07-16T13:15:45;2.35;;;1.33;;
8895;SDS011;4484;48.928;10.066;2023-07-16T13:18:12;1.40;;;1.23;;
8895;SDS011;4484;48.928;10.066;2023-07-16T13:20:39;3.45;;;1.67;;
8895;SDS011;4484;48.928;10.066;2023-07-16T13:23:05;2.30;;;1.55;;
8895;SDS011;4484;48.928;10.066;2023-07-16T13:25:35;2.13;;;1.20;;
8895;SDS011;4484;48.928;10.066;2023-07-16T13:28:04;1.38;;;1.25;;
8895;SDS011;4484;48.928;10.066;2023-07-16T13:30:32;1.70;;;1.10;;
8895;SDS011;4484;48.928;10.066;2023-07-16T13:32:59;4.25;;;1.38;;
8895;SDS011;4484;48.928;10.066;2023-07-16T13:35:27;2.60;;;1.63;;
8895;SDS011;4484;48.928;10.066;2023-07-16T13:37:54;3.20;;;1.55;;
8895;SDS011;4484;48.928;10.066;2023-07-16T13:40:21;3.80;;;1.58;;
8895;SDS011;4484;48.928;10.066;2023-07-16T13:42:48;2.30;;;1.20;;
8895;SDS011;4484;48.928;10.066;2023-07-16T13:45:15;1.40;;;1.25;;
8895;SDS011;4484;48.928;10.066;2023-07-16T13:47:42;2.25;;;1.35;;
8895;SDS011;4484;48.928;10.066;2023-07-16T13:50:09;2.25;;;1.45;;
8895;SDS011;4484;48.928;10.066;2023-07-16T13:52:36;1.88;;;1.40;;
8895;SDS011;4484;48.928;10.066;2023-07-16T13:55:04;2.15;;;1.40;;
8895;SDS011;4484;48.928;10.066;2023-07-16T13:57:31;3.20;;;1.20;;
8895;SDS011;4484;48.928;10.066;2023-07-16T13:59:58;4.63;;;1.67;;
8895;SDS011;4484;48.928;10.066;2023-07-16T14:02:30;2.80;;;1.63;;
8895;SDS011;4484;48.928;10.066;2023-07-16T14:04:57;2.30;;;1.60;;
8895;SDS011;4484;48.928;10.066;2023-07-16T14:07:24;3.03;;;1.63;;
8895;SDS011;4484;48.928;10.066;2023-07-16T14:09:51;1.88;;;1.50;;
8895;SDS011;4484;48.928;10.066;2023-07-16T14:12:17;3.95;;;1.90;;
8895;SDS011;4484;48.928;10.066;2023-07-16T14:14:44;4.50;;;1.70;;
8895;SDS011;4484;48.928;10.066;2023-07-16T14:17:11;4.50;;;1.50;;
8895;SDS011;4484;48.928;10.066;2023-07-16T14:19:38;3.35;;;1.65;;
8895;SDS011;4484;48.928;10.066;2023-07-16T14:22:05;2.40;;;1.90;;
8895;SDS011;4484;48.928;10.066;2023-07-16T14:24:32;2.03;;;1.30;;
8895;SDS011;4484;48.928;10.066;2023-07-16T14:26:59;2.42;;;1.50;;
8895;SDS011;4484;48.928;10.066;2023-07-16T14:29:28;2.75;;;1.67;;
8895;SDS011;4484;48.928;10.066;2023-07-16T14:31:55;3.08;;;1.30;;
8895;SDS011;4484;48.928;10.066;2023-07-16T14:34:23;1.40;;;1.30;;
8895;SDS011;4484;48.928;10.066;2023-07-16T14:36:51;3.20;;;1.40;;
8895;SDS011;4484;48.928;10.066;2023-07-16T14:39:18;2.00;;;1.40;;
8895;SDS011;4484;48.928;10.066;2023-07-16T14:41:45;2.30;;;1.27;;
8895;SDS011;4484;48.928;10.066;2023-07-16T14:44:12;2.60;;;1.58;;
8895;SDS011;4484;48.928;10.066;2023-07-16T14:46:39;3.08;;;1.58;;
8895;SDS011;4484;48.928;10.066;2023-07-16T14:49:06;1.65;;;1.40;;
8895;SDS011;4484;48.928;10.066;2023-07-16T14:51:33;3.10;;;1.77;;
8895;SDS011;4484;48.928;10.066;2023-07-16T14:54:06;2.85;;;1.20;;
8895;SDS011;4484;48.928;10.066;2023-07-16T14:56:34;1.42;;;1.20;;
8895;SDS011;4484;48.928;10.066;2023-07-16T14:59:01;3.25;;;1.20;;
8895;SDS011;4484;48.928;10.066;2023-07-16T15:01:28;1.70;;;1.33;;
8895;SDS011;4484;48.928;10.066;2023-07-16T15:03:55;4.55;;;1.67;;
8895;SDS011;4484;48.928;10.066;2023-07-16T15:06:22;1.67;;;1.20;;
8895;SDS011;4484;48.928;10.066;2023-07-16T15:08:50;1.55;;;1.45;;
8895;SDS011;4484;48.928;10.066;2023-07-16T15:11:17;2.05;;;1.25;;
8895;SDS011;4484;48.928;10.066;2023-07-16T15:13:44;2.00;;;1.23;;
8895;SDS011;4484;48.928;10.066;2023-07-16T15:16:11;3.55;;;1.80;;
8895;SDS011;4484;48.928;10.066;2023-07-16T15:18:40;1.75;;;1.38;;
8895;SDS011;4484;48.928;10.066;2023-07-16T15:21:07;2.28;;;1.30;;